Terminal Aerodrome Forecast
Issued by NWS State College, PA

Home | Current Version | Previous Version | Text Only | Print | Product List | Glossary On
Versions: 1 2 3 4 5 6 7 8 9 10 11 12 13 14 15 16 17 18 19 20 21 22 23 24 25 26 27 28 29
000
FTUS41 KCTP 310548
TAFMDT
TAF
KMDT 310548Z 3106/0106 13005KT 5SM BR SCT007 BKN015
     FM311000 VRB02KT 4SM BR SCT004
     FM311400 28007KT P6SM SCT040
     FM010500 VRB04KT 5SM BR SCT035=

USA.gov is the U.S. government's official web portal to all federal, state and local government web resources and services.